Time;durP1;ratioP1;P1;durP2;ratioP2;P2;SDS_P1;SDS_P2;PMS_P1;PMS_P2;Temp;Humidity;BMP_temperature;BMP_pressure;BME280_temperature;BME280_humidity;BME280_pressure;Samples;Min_cycle;Max_cycle;Signal;HPM_P1;HPM_P2
2024/01/01 00:01:55;;;;;;;;;;;8.10;99.90;;;;;;6669999;88;20075;-79
2024/01/01 00:11:56;;;;;;;;;;;8.10;99.90;;;;;;6666499;89;20063;-77
2024/01/01 00:21:56;;;;;;;;;;;8.00;99.90;;;;;;6665536;88;20052;-76
2024/01/01 00:31:57;;;;;;;;;;;8.10;99.90;;;;;;6665667;89;20512;-77
2024/01/01 00:41:58;;;;;;;;;;;8.00;99.90;;;;;;6665088;89;20068;-77
2024/01/01 00:51:58;;;;;;;;;;;8.00;99.90;;;;;;6659919;89;20466;-78
2024/01/01 01:01:59;;;;;;;;;;;8.00;99.90;;;;;;6666277;89;20079;-77
2024/01/01 01:11:59;;;;;;;;;;;8.00;99.90;;;;;;6668140;89;20084;-77
2024/01/01 01:22:00;;;;;;;;;;;8.10;99.90;;;;;;6663918;89;20048;-78
2024/01/01 01:32:00;;;;;;;;;;;8.00;99.90;;;;;;6663477;89;20052;-77
2024/01/01 01:42:01;;;;;;;;;;;8.10;99.90;;;;;;6664228;89;20056;-76
2024/01/01 01:52:02;;;;;;;;;;;8.30;99.90;;;;;;6646984;88;20808;-78
2024/01/01 02:02:03;;;;;;;;;;;8.30;99.90;;;;;;6643039;89;20181;-77
2024/01/01 02:12:03;;;;;;;;;;;8.40;99.90;;;;;;6646279;88;20122;-78
2024/01/01 02:22:04;;;;;;;;;;;8.30;99.90;;;;;;6646968;89;20061;-77
2024/01/01 02:32:04;;;;;;;;;;;8.30;99.90;;;;;;6646514;88;20069;-77
2024/01/01 02:42:05;;;;;;;;;;;8.30;99.90;;;;;;6648582;88;20519;-78
2024/01/01 02:52:05;;;;;;;;;;;8.40;99.90;;;;;;6650613;88;20070;-79
2024/01/01 03:02:07;;;;;;;;;;;8.40;99.90;;;;;;6669791;78;20533;-75
2024/01/01 03:12:08;;;;;;;;;;;8.40;99.90;;;;;;6714527;88;20110;-75
2024/01/01 03:22:08;;;;;;;;;;;8.30;99.90;;;;;;6739561;88;20184;-76
2024/01/01 03:32:09;;;;;;;;;;;8.50;99.90;;;;;;6729803;88;20054;-76
2024/01/01 03:42:09;;;;;;;;;;;8.50;99.90;;;;;;6741681;88;20067;-76
2024/01/01 03:52:10;;;;;;;;;;;8.50;99.90;;;;;;6724814;88;20093;-76
2024/01/01 04:02:10;;;;;;;;;;;8.40;99.90;;;;;;6753217;87;20076;-76
2024/01/01 04:12:10;;;;;;;;;;;8.20;99.90;;;;;;6768234;87;20097;-77
2024/01/01 04:22:12;;;;;;;;;;;8.30;99.90;;;;;;6771878;87;20054;-77
2024/01/01 04:32:12;;;;;;;;;;;8.40;99.90;;;;;;6765506;87;20102;-76
2024/01/01 04:42:13;;;;;;;;;;;8.50;99.90;;;;;;6770362;87;20085;-77
2024/01/01 04:52:13;;;;;;;;;;;8.50;99.90;;;;;;6771598;87;20468;-78
2024/01/01 05:02:15;;;;;;;;;;;8.50;99.90;;;;;;6765735;87;20125;-78
2024/01/01 05:12:16;;;;;;;;;;;8.60;99.90;;;;;;6768122;87;20507;-77
2024/01/01 05:22:16;;;;;;;;;;;8.50;99.90;;;;;;6768097;87;20064;-77
2024/01/01 05:32:17;;;;;;;;;;;8.40;99.90;;;;;;6769403;87;20545;-77
2024/01/01 05:42:18;;;;;;;;;;;8.40;99.90;;;;;;6767190;87;20064;-76
2024/01/01 05:52:21;;;;;;;;;;;8.60;99.90;;;;;;6767674;87;20109;-78
2024/01/01 06:02:22;;;;;;;;;;;8.50;99.90;;;;;;6767291;87;20071;-77
2024/01/01 06:12:22;;;;;;;;;;;8.40;99.90;;;;;;6768515;87;20111;-76
2024/01/01 06:22:23;;;;;;;;;;;8.60;99.90;;;;;;6771832;87;20067;-76
2024/01/01 06:32:23;;;;;;;;;;;8.60;99.90;;;;;;6770888;87;20069;-76
2024/01/01 06:42:24;;;;;;;;;;;8.50;99.90;;;;;;6768731;87;20057;-76
2024/01/01 06:52:24;;;;;;;;;;;8.50;99.90;;;;;;6770256;87;20103;-77
2024/01/01 07:02:25;;;;;;;;;;;8.20;99.90;;;;;;6767732;87;20087;-76
2024/01/01 07:12:28;;;;;;;;;;;8.20;99.90;;;;;;6769535;87;20527;-76
2024/01/01 07:22:29;;;;;;;;;;;8.20;99.90;;;;;;6767170;87;20088;-77
2024/01/01 07:32:30;;;;;;;;;;;8.10;99.90;;;;;;6763070;87;20277;-77
2024/01/01 07:42:31;;;;;;;;;;;8.00;99.90;;;;;;6769416;87;20053;-76
2024/01/01 07:52:32;;;;;;;;;;;7.90;99.90;;;;;;6770048;87;20181;-77
2024/01/01 08:02:32;;;;;;;;;;;8.00;99.90;;;;;;6769627;87;20166;-76
2024/01/01 08:12:33;;;;;;;;;;;8.00;99.90;;;;;;6764825;87;20642;-77
2024/01/01 08:22:33;;;;;;;;;;;7.90;99.90;;;;;;6766839;87;20065;-77
2024/01/01 08:32:34;;;;;;;;;;;8.10;99.90;;;;;;6766313;87;20109;-76
2024/01/01 08:42:34;;;;;;;;;;;8.10;99.90;;;;;;6768239;87;20677;-77
2024/01/01 08:52:35;;;;;;;;;;;8.20;99.90;;;;;;6763440;87;20184;-77
2024/01/01 09:12:38;;;;;;;;;;;8.20;99.90;;;;;;6741204;88;20089;-77
2024/01/01 09:22:39;;;;;;;;;;;8.20;99.90;;;;;;6736167;88;20152;-77
2024/01/01 09:32:39;;;;;;;;;;;8.30;99.90;;;;;;6736026;88;20057;-78
2024/01/01 09:42:49;;;;;;;;;;;8.30;99.90;;;;;;6735531;88;20500;-78
2024/01/01 09:52:57;;;;;;;;;;;8.40;99.90;;;;;;6738442;88;20065;-79
2024/01/01 10:03:10;;;;;;;;;;;8.50;99.90;;;;;;6734245;88;20200;-78
2024/01/01 10:13:14;;;;;;;;;;;8.50;99.90;;;;;;6738587;88;20175;-77
2024/01/01 10:23:20;;;;;;;;;;;8.60;99.90;;;;;;6738602;88;20053;-80
2024/01/01 10:33:21;;;;;;;;;;;8.60;99.90;;;;;;6734988;88;20070;-79
2024/01/01 10:43:28;;;;;;;;;;;8.70;99.90;;;;;;6742674;88;20057;-78
2024/01/01 10:53:47;;;;;;;;;;;8.60;99.90;;;;;;6721515;88;20195;-79
2024/01/01 11:03:48;;;;;;;;;;;8.60;99.90;;;;;;6717486;88;20066;-78
2024/01/01 11:13:48;;;;;;;;;;;8.70;99.90;;;;;;6718214;88;20615;-78
2024/01/01 11:23:49;;;;;;;;;;;8.80;99.90;;;;;;6719793;88;20610;-78
2024/01/01 11:34:06;;;;;;;;;;;9.00;99.90;;;;;;6726525;88;20567;-79
2024/01/01 11:44:10;;;;;;;;;;;9.20;99.90;;;;;;6725560;88;20173;-80
2024/01/01 11:54:11;;;;;;;;;;;9.50;99.90;;;;;;6733157;88;20073;-77
2024/01/01 12:04:11;;;;;;;;;;;9.60;99.90;;;;;;6748491;88;20083;-78
2024/01/01 12:14:12;;;;;;;;;;;9.50;99.90;;;;;;6751159;88;20598;-79
2024/01/01 12:24:13;;;;;;;;;;;9.60;99.90;;;;;;6742078;88;20066;-78
2024/01/01 12:34:15;;;;;;;;;;;9.80;99.90;;;;;;6750476;88;20053;-79
2024/01/01 12:44:15;;;;;;;;;;;9.70;99.90;;;;;;6743780;87;20138;-80
2024/01/01 12:54:16;;;;;;;;;;;9.70;99.90;;;;;;6741756;87;20072;-76
2024/01/01 13:04:16;;;;;;;;;;;9.60;99.90;;;;;;6746932;88;20146;-78
2024/01/01 13:14:17;;;;;;;;;;;9.80;99.90;;;;;;6741691;88;20069;-78
2024/01/01 13:24:17;;;;;;;;;;;9.90;99.90;;;;;;6739806;88;20059;-78
2024/01/01 13:34:18;;;;;;;;;;;10.20;99.90;;;;;;6740308;88;20134;-78
2024/01/01 13:44:19;;;;;;;;;;;10.10;99.90;;;;;;6734644;88;20528;-78
2024/01/01 13:54:19;;;;;;;;;;;10.00;99.90;;;;;;6743576;88;20081;-78
2024/01/01 14:04:19;;;;;;;;;;;10.00;99.90;;;;;;6738935;88;20477;-78
2024/01/01 14:14:20;;;;;;;;;;;10.00;99.90;;;;;;6738538;88;20079;-77
2024/01/01 14:24:20;;;;;;;;;;;9.80;99.90;;;;;;6732333;88;20112;-78
2024/01/01 14:34:21;;;;;;;;;;;9.60;99.90;;;;;;6738329;88;20591;-78
2024/01/01 14:44:21;;;;;;;;;;;9.60;99.90;;;;;;6739051;88;20504;-78
2024/01/01 14:54:22;;;;;;;;;;;9.50;99.90;;;;;;6742910;88;20058;-80
2024/01/01 15:04:22;;;;;;;;;;;9.40;99.90;;;;;;6742695;88;20078;-79
2024/01/01 15:14:23;;;;;;;;;;;9.30;99.90;;;;;;6753283;87;20621;-79
2024/01/01 15:24:24;;;;;;;;;;;9.20;99.90;;;;;;6760209;87;20093;-80
2024/01/01 15:34:24;;;;;;;;;;;9.10;99.90;;;;;;6754545;88;20033;-78
2024/01/01 15:44:25;;;;;;;;;;;9.10;99.90;;;;;;6746830;88;20066;-79
2024/01/01 15:54:26;;;;;;;;;;;9.00;99.90;;;;;;6732846;88;20086;-79
2024/01/01 16:04:27;;;;;;;;;;;9.00;99.90;;;;;;6730282;88;20110;-80
2024/01/01 16:14:27;;;;;;;;;;;8.90;99.90;;;;;;6745884;88;20137;-78
2024/01/01 16:24:28;;;;;;;;;;;8.80;99.90;;;;;;6747912;88;20067;-79
2024/01/01 16:34:28;;;;;;;;;;;8.80;99.90;;;;;;6758434;88;20073;-78
2024/01/01 16:44:30;;;;;;;;;;;8.80;99.90;;;;;;6738205;88;20193;-78
2024/01/01 16:54:32;;;;;;;;;;;8.70;99.90;;;;;;6734399;88;20104;-78
2024/01/01 17:04:32;;;;;;;;;;;8.70;99.90;;;;;;6730009;88;20090;-78
2024/01/01 17:14:33;;;;;;;;;;;8.50;99.90;;;;;;6747489;88;20065;-77
2024/01/01 17:24:33;;;;;;;;;;;8.60;99.90;;;;;;6745318;88;20072;-76
2024/01/01 17:34:34;;;;;;;;;;;8.50;99.90;;;;;;6736365;88;20517;-77
2024/01/01 17:44:34;;;;;;;;;;;8.50;99.90;;;;;;6732101;87;20065;-77
2024/01/01 17:54:35;;;;;;;;;;;8.50;99.90;;;;;;6735566;88;20066;-79
2024/01/01 18:04:35;;;;;;;;;;;8.40;99.90;;;;;;6742882;88;20534;-80
2024/01/01 18:14:36;;;;;;;;;;;8.60;99.90;;;;;;6731677;88;20175;-79
2024/01/01 18:24:38;;;;;;;;;;;8.60;99.90;;;;;;6741263;88;20581;-77
2024/01/01 18:34:41;;;;;;;;;;;8.50;99.90;;;;;;6732216;87;20065;-77
2024/01/01 18:44:43;;;;;;;;;;;8.60;99.90;;;;;;6730306;88;20545;-77
2024/01/01 18:54:43;;;;;;;;;;;8.50;99.90;;;;;;6729696;87;20239;-77
2024/01/01 19:04:44;;;;;;;;;;;8.50;99.90;;;;;;6732884;87;20169;-77
2024/01/01 19:14:45;;;;;;;;;;;8.40;99.90;;;;;;6731467;88;20525;-77
2024/01/01 19:24:46;;;;;;;;;;;8.40;99.90;;;;;;6727325;88;20537;-77
2024/01/01 19:34:46;;;;;;;;;;;8.30;99.90;;;;;;6731522;88;20548;-77
2024/01/01 19:44:47;;;;;;;;;;;8.30;99.90;;;;;;6732817;88;20119;-77
2024/01/01 19:54:47;;;;;;;;;;;8.20;99.90;;;;;;6728937;88;20067;-77
2024/01/01 20:04:47;;;;;;;;;;;8.20;99.90;;;;;;6726053;88;20063;-77
2024/01/01 20:14:48;;;;;;;;;;;8.00;99.90;;;;;;6733123;88;20124;-78
2024/01/01 20:24:48;;;;;;;;;;;7.90;99.90;;;;;;6728115;88;20078;-77
2024/01/01 20:34:49;;;;;;;;;;;7.80;99.90;;;;;;6726499;88;20155;-76
2024/01/01 20:44:49;;;;;;;;;;;7.80;99.90;;;;;;6732915;88;20530;-76
2024/01/01 20:54:50;;;;;;;;;;;7.90;99.90;;;;;;6754716;87;20116;-76
2024/01/01 21:15:32;;;;;;;;;;;7.90;99.90;;;;;;6738807;88;20055;-78
2024/01/01 21:25:32;;;;;;;;;;;7.80;99.90;;;;;;6739678;88;20057;-79
2024/01/01 21:35:33;;;;;;;;;;;7.80;99.90;;;;;;6757219;88;20142;-80
2024/01/01 21:45:33;;;;;;;;;;;7.80;99.90;;;;;;6751604;88;20085;-79
2024/01/01 21:55:34;;;;;;;;;;;7.80;99.90;;;;;;6750975;88;20054;-79
2024/01/01 22:05:34;;;;;;;;;;;7.70;99.90;;;;;;6737936;88;20266;-80
2024/01/01 22:15:35;;;;;;;;;;;7.70;99.90;;;;;;6748138;88;20058;-81
2024/01/01 22:25:36;;;;;;;;;;;7.60;99.90;;;;;;6746974;88;20058;-81
2024/01/01 22:35:36;;;;;;;;;;;7.70;99.90;;;;;;6750984;88;20557;-80
2024/01/01 22:45:36;;;;;;;;;;;7.70;99.90;;;;;;6749350;88;20058;-78
2024/01/01 22:55:37;;;;;;;;;;;7.80;99.90;;;;;;6749957;88;20058;-79
2024/01/01 23:05:37;;;;;;;;;;;7.80;99.90;;;;;;6748311;88;20551;-80
2024/01/01 23:15:38;;;;;;;;;;;7.80;99.90;;;;;;6747259;88;20085;-81
2024/01/01 23:25:39;;;;;;;;;;;7.80;99.90;;;;;;6749889;88;20073;-80
2024/01/01 23:35:39;;;;;;;;;;;7.80;99.90;;;;;;6747793;88;20061;-81
2024/01/01 23:45:40;;;;;;;;;;;7.90;99.90;;;;;;6756143;88;20117;-79
2024/01/01 23:55:40;;;;;;;;;;;7.90;99.90;;;;;;6752183;88;20102;-79
